Terminal Aerodrome Forecast
Issued by NWS Boston, MA

Home | Current Version | Previous Version | Text Only | Print | Product List | Glossary On
Versions: 1 2 3 4 5 6 7 8 9 10 11 12 13 14 15 16 17 18 19 20 21 22 23 24 25 26 27 28 29 30 31 32 33 34 35 36 37 38 39 40 41 42 43 44 45
000
FTUS41 KBOX 291728
TAFPVD
TAF
KPVD 291728Z 2918/3018 VRB03KT P6SM BKN250
     FM300100 VRB03KT P6SM BKN110
     FM300400 16005KT P6SM OVC015
     FM300600 16005KT P6SM -SN OVC015
     FM301200 20004KT 3SM -SNRA OVC015
     FM301300 21004KT 3SM -SN OVC015
     FM301700 28006KT P6SM OVC008=

USA.gov is the U.S. government's official web portal to all federal, state and local government web resources and services.